sensor_id;sensor_type;location;lat;lon;timestamp;P1;durP1;ratioP1;P2;durP2;ratioP2
59273;SDS011;45044;41.572;24.730;2022-07-29T00:00:57;9.95;;;8.68;;
59273;SDS011;45044;41.572;24.730;2022-07-29T00:03:24;11.00;;;8.48;;
59273;SDS011;45044;41.572;24.730;2022-07-29T00:05:51;10.25;;;7.97;;
59273;SDS011;45044;41.572;24.730;2022-07-29T00:08:19;9.93;;;8.15;;
59273;SDS011;45044;41.572;24.730;2022-07-29T00:10:46;9.95;;;7.53;;
59273;SDS011;45044;41.572;24.730;2022-07-29T00:13:13;12.40;;;8.90;;
59273;SDS011;45044;41.572;24.730;2022-07-29T00:15:40;10.30;;;7.82;;
59273;SDS011;45044;41.572;24.730;2022-07-29T00:18:06;10.95;;;8.02;;
59273;SDS011;45044;41.572;24.730;2022-07-29T00:20:33;11.05;;;7.72;;
59273;SDS011;45044;41.572;24.730;2022-07-29T00:23:00;10.85;;;8.15;;
59273;SDS011;45044;41.572;24.730;2022-07-29T00:25:26;11.00;;;8.38;;
59273;SDS011;45044;41.572;24.730;2022-07-29T00:27:53;9.90;;;7.97;;
59273;SDS011;45044;41.572;24.730;2022-07-29T00:30:20;10.75;;;8.35;;
59273;SDS011;45044;41.572;24.730;2022-07-29T00:32:47;10.40;;;7.93;;
59273;SDS011;45044;41.572;24.730;2022-07-29T00:35:13;11.35;;;8.45;;
59273;SDS011;45044;41.572;24.730;2022-07-29T00:37:58;11.85;;;8.70;;
59273;SDS011;45044;41.572;24.730;2022-07-29T00:40:27;13.95;;;8.63;;
59273;SDS011;45044;41.572;24.730;2022-07-29T00:42:54;12.90;;;8.98;;
59273;SDS011;45044;41.572;24.730;2022-07-29T00:45:21;11.40;;;8.75;;
59273;SDS011;45044;41.572;24.730;2022-07-29T00:47:48;11.57;;;8.60;;
59273;SDS011;45044;41.572;24.730;2022-07-29T00:50:18;11.70;;;8.27;;
59273;SDS011;45044;41.572;24.730;2022-07-29T00:52:45;11.20;;;9.30;;
59273;SDS011;45044;41.572;24.730;2022-07-29T00:55:16;10.95;;;8.63;;
59273;SDS011;45044;41.572;24.730;2022-07-29T00:57:43;11.43;;;8.88;;
59273;SDS011;45044;41.572;24.730;2022-07-29T01:00:12;12.32;;;8.90;;
59273;SDS011;45044;41.572;24.730;2022-07-29T01:02:45;11.88;;;9.30;;
59273;SDS011;45044;41.572;24.730;2022-07-29T01:05:17;11.88;;;9.43;;
59273;SDS011;45044;41.572;24.730;2022-07-29T01:07:48;13.07;;;9.93;;
59273;SDS011;45044;41.572;24.730;2022-07-29T01:10:17;12.13;;;9.15;;
59273;SDS011;45044;41.572;24.730;2022-07-29T01:12:46;11.70;;;9.10;;
59273;SDS011;45044;41.572;24.730;2022-07-29T01:15:15;11.93;;;10.35;;
59273;SDS011;45044;41.572;24.730;2022-07-29T01:23:39;12.55;;;9.45;;
59273;SDS011;45044;41.572;24.730;2022-07-29T01:34:52;12.30;;;9.48;;
59273;SDS011;45044;41.572;24.730;2022-07-29T01:37:24;12.00;;;8.93;;
59273;SDS011;45044;41.572;24.730;2022-07-29T01:39:55;12.82;;;9.70;;
59273;SDS011;45044;41.572;24.730;2022-07-29T01:51:04;11.77;;;8.93;;
59273;SDS011;45044;41.572;24.730;2022-07-29T01:56:22;12.10;;;9.55;;
59273;SDS011;45044;41.572;24.730;2022-07-29T01:58:51;10.93;;;8.15;;
59273;SDS011;45044;41.572;24.730;2022-07-29T02:01:23;11.70;;;8.98;;
59273;SDS011;45044;41.572;24.730;2022-07-29T02:03:53;11.40;;;8.73;;
59273;SDS011;45044;41.572;24.730;2022-07-29T02:06:26;12.20;;;9.52;;
59273;SDS011;45044;41.572;24.730;2022-07-29T02:08:58;11.70;;;9.18;;
59273;SDS011;45044;41.572;24.730;2022-07-29T02:11:26;12.63;;;9.30;;
59273;SDS011;45044;41.572;24.730;2022-07-29T02:13:54;12.63;;;9.68;;
59273;SDS011;45044;41.572;24.730;2022-07-29T02:16:23;10.23;;;8.63;;
59273;SDS011;45044;41.572;24.730;2022-07-29T02:18:55;11.43;;;8.77;;
59273;SDS011;45044;41.572;24.730;2022-07-29T02:21:26;12.45;;;9.30;;
59273;SDS011;45044;41.572;24.730;2022-07-29T02:23:54;13.80;;;10.07;;
59273;SDS011;45044;41.572;24.730;2022-07-29T02:26:24;12.88;;;9.77;;
59273;SDS011;45044;41.572;24.730;2022-07-29T02:28:54;13.93;;;9.98;;
59273;SDS011;45044;41.572;24.730;2022-07-29T02:31:23;12.57;;;9.35;;
59273;SDS011;45044;41.572;24.730;2022-07-29T02:33:52;10.00;;;8.40;;
59273;SDS011;45044;41.572;24.730;2022-07-29T02:36:21;13.45;;;9.35;;
59273;SDS011;45044;41.572;24.730;2022-07-29T02:38:49;13.88;;;9.38;;
59273;SDS011;45044;41.572;24.730;2022-07-29T02:41:23;12.20;;;9.60;;
59273;SDS011;45044;41.572;24.730;2022-07-29T02:43:57;11.93;;;10.07;;
59273;SDS011;45044;41.572;24.730;2022-07-29T02:46:32;13.18;;;10.57;;
59273;SDS011;45044;41.572;24.730;2022-07-29T02:52:03;11.75;;;9.15;;
59273;SDS011;45044;41.572;24.730;2022-07-29T02:57:20;12.27;;;9.45;;
59273;SDS011;45044;41.572;24.730;2022-07-29T02:59:56;13.88;;;9.85;;
59273;SDS011;45044;41.572;24.730;2022-07-29T03:02:25;12.40;;;9.70;;
59273;SDS011;45044;41.572;24.730;2022-07-29T03:04:57;12.02;;;9.50;;
59273;SDS011;45044;41.572;24.730;2022-07-29T03:07:26;11.02;;;9.52;;
59273;SDS011;45044;41.572;24.730;2022-07-29T03:09:54;14.70;;;10.38;;
59273;SDS011;45044;41.572;24.730;2022-07-29T03:12:21;15.00;;;9.50;;
59273;SDS011;45044;41.572;24.730;2022-07-29T03:14:48;13.50;;;9.82;;
59273;SDS011;45044;41.572;24.730;2022-07-29T03:17:15;12.80;;;9.57;;
59273;SDS011;45044;41.572;24.730;2022-07-29T03:19:42;12.73;;;9.80;;
59273;SDS011;45044;41.572;24.730;2022-07-29T03:22:09;14.40;;;9.88;;
59273;SDS011;45044;41.572;24.730;2022-07-29T03:24:37;13.73;;;9.32;;
59273;SDS011;45044;41.572;24.730;2022-07-29T03:27:04;12.85;;;9.35;;
59273;SDS011;45044;41.572;24.730;2022-07-29T03:29:31;12.23;;;9.38;;
59273;SDS011;45044;41.572;24.730;2022-07-29T03:32:01;12.80;;;9.88;;
59273;SDS011;45044;41.572;24.730;2022-07-29T03:34:31;12.10;;;10.05;;
59273;SDS011;45044;41.572;24.730;2022-07-29T03:36:57;14.52;;;9.85;;
59273;SDS011;45044;41.572;24.730;2022-07-29T03:39:25;12.50;;;9.30;;
59273;SDS011;45044;41.572;24.730;2022-07-29T03:41:55;12.38;;;10.05;;
59273;SDS011;45044;41.572;24.730;2022-07-29T03:44:26;12.30;;;10.10;;
59273;SDS011;45044;41.572;24.730;2022-07-29T03:46:54;12.85;;;9.10;;
59273;SDS011;45044;41.572;24.730;2022-07-29T03:49:24;14.05;;;10.50;;
59273;SDS011;45044;41.572;24.730;2022-07-29T03:51:53;12.20;;;9.82;;
59273;SDS011;45044;41.572;24.730;2022-07-29T03:54:20;12.77;;;9.63;;
59273;SDS011;45044;41.572;24.730;2022-07-29T03:56:47;11.75;;;9.80;;
59273;SDS011;45044;41.572;24.730;2022-07-29T03:59:18;12.95;;;9.82;;
59273;SDS011;45044;41.572;24.730;2022-07-29T04:01:47;13.18;;;9.75;;
59273;SDS011;45044;41.572;24.730;2022-07-29T04:04:15;12.57;;;9.60;;
59273;SDS011;45044;41.572;24.730;2022-07-29T04:06:44;13.23;;;10.45;;
59273;SDS011;45044;41.572;24.730;2022-07-29T04:09:13;12.43;;;10.35;;
59273;SDS011;45044;41.572;24.730;2022-07-29T04:11:40;12.98;;;10.45;;
59273;SDS011;45044;41.572;24.730;2022-07-29T04:14:28;12.00;;;9.27;;
59273;SDS011;45044;41.572;24.730;2022-07-29T04:16:56;13.57;;;10.05;;
59273;SDS011;45044;41.572;24.730;2022-07-29T04:19:24;13.13;;;9.32;;
59273;SDS011;45044;41.572;24.730;2022-07-29T04:21:54;12.50;;;9.82;;
59273;SDS011;45044;41.572;24.730;2022-07-29T04:24:21;14.23;;;10.40;;
59273;SDS011;45044;41.572;24.730;2022-07-29T04:26:48;12.52;;;9.52;;
59273;SDS011;45044;41.572;24.730;2022-07-29T04:29:15;13.57;;;10.90;;
59273;SDS011;45044;41.572;24.730;2022-07-29T04:31:42;12.27;;;9.90;;
59273;SDS011;45044;41.572;24.730;2022-07-29T04:34:10;12.70;;;9.82;;
59273;SDS011;45044;41.572;24.730;2022-07-29T04:36:37;13.50;;;10.27;;
59273;SDS011;45044;41.572;24.730;2022-07-29T04:39:04;11.98;;;9.27;;
59273;SDS011;45044;41.572;24.730;2022-07-29T04:41:31;11.93;;;10.02;;
59273;SDS011;45044;41.572;24.730;2022-07-29T04:43:59;13.43;;;9.95;;
59273;SDS011;45044;41.572;24.730;2022-07-29T04:46:33;12.50;;;10.30;;
59273;SDS011;45044;41.572;24.730;2022-07-29T04:49:01;14.05;;;10.80;;
59273;SDS011;45044;41.572;24.730;2022-07-29T04:51:29;13.60;;;11.23;;
59273;SDS011;45044;41.572;24.730;2022-07-29T04:53:58;12.55;;;10.25;;
59273;SDS011;45044;41.572;24.730;2022-07-29T04:56:25;12.25;;;10.18;;
59273;SDS011;45044;41.572;24.730;2022-07-29T04:58:54;15.40;;;10.27;;
59273;SDS011;45044;41.572;24.730;2022-07-29T05:01:21;13.05;;;10.30;;
59273;SDS011;45044;41.572;24.730;2022-07-29T05:03:50;12.02;;;9.88;;
59273;SDS011;45044;41.572;24.730;2022-07-29T05:06:22;13.73;;;10.27;;
59273;SDS011;45044;41.572;24.730;2022-07-29T05:08:48;10.63;;;9.07;;
59273;SDS011;45044;41.572;24.730;2022-07-29T05:11:15;11.35;;;9.63;;
59273;SDS011;45044;41.572;24.730;2022-07-29T05:13:47;14.20;;;9.85;;
59273;SDS011;45044;41.572;24.730;2022-07-29T05:16:14;14.75;;;9.95;;
59273;SDS011;45044;41.572;24.730;2022-07-29T05:18:41;10.68;;;9.35;;
59273;SDS011;45044;41.572;24.730;2022-07-29T05:21:09;11.27;;;8.85;;
59273;SDS011;45044;41.572;24.730;2022-07-29T05:23:36;10.75;;;9.23;;
59273;SDS011;45044;41.572;24.730;2022-07-29T05:26:02;11.60;;;8.48;;
59273;SDS011;45044;41.572;24.730;2022-07-29T05:28:32;11.32;;;10.13;;
59273;SDS011;45044;41.572;24.730;2022-07-29T05:31:00;11.27;;;8.65;;
59273;SDS011;45044;41.572;24.730;2022-07-29T05:33:27;12.13;;;9.95;;
59273;SDS011;45044;41.572;24.730;2022-07-29T05:36:04;10.13;;;9.02;;
59273;SDS011;45044;41.572;24.730;2022-07-29T05:38:34;9.23;;;8.15;;
59273;SDS011;45044;41.572;24.730;2022-07-29T05:41:02;9.73;;;8.65;;
59273;SDS011;45044;41.572;24.730;2022-07-29T05:43:29;9.63;;;8.63;;
59273;SDS011;45044;41.572;24.730;2022-07-29T05:45:57;9.77;;;8.77;;
59273;SDS011;45044;41.572;24.730;2022-07-29T05:48:24;10.48;;;8.77;;
59273;SDS011;45044;41.572;24.730;2022-07-29T05:50:51;10.52;;;8.88;;
59273;SDS011;45044;41.572;24.730;2022-07-29T05:53:18;10.10;;;9.00;;
59273;SDS011;45044;41.572;24.730;2022-07-29T05:55:46;9.65;;;8.45;;
59273;SDS011;45044;41.572;24.730;2022-07-29T05:58:14;9.90;;;8.63;;
59273;SDS011;45044;41.572;24.730;2022-07-29T06:00:41;10.60;;;8.02;;
59273;SDS011;45044;41.572;24.730;2022-07-29T06:03:08;10.38;;;8.00;;
59273;SDS011;45044;41.572;24.730;2022-07-29T06:05:34;10.88;;;8.85;;
59273;SDS011;45044;41.572;24.730;2022-07-29T06:08:04;7.32;;;6.32;;
59273;SDS011;45044;41.572;24.730;2022-07-29T06:10:36;6.93;;;5.97;;
59273;SDS011;45044;41.572;24.730;2022-07-29T06:13:03;10.88;;;5.60;;
59273;SDS011;45044;41.572;24.730;2022-07-29T06:15:30;7.93;;;6.22;;
59273;SDS011;45044;41.572;24.730;2022-07-29T06:17:56;10.95;;;7.07;;
59273;SDS011;45044;41.572;24.730;2022-07-29T06:20:26;7.53;;;6.28;;
59273;SDS011;45044;41.572;24.730;2022-07-29T06:22:56;7.45;;;6.53;;
59273;SDS011;45044;41.572;24.730;2022-07-29T06:25:23;7.10;;;6.07;;
59273;SDS011;45044;41.572;24.730;2022-07-29T06:27:56;6.80;;;5.25;;
59273;SDS011;45044;41.572;24.730;2022-07-29T06:30:23;5.65;;;4.38;;
59273;SDS011;45044;41.572;24.730;2022-07-29T06:32:53;7.22;;;5.28;;
59273;SDS011;45044;41.572;24.730;2022-07-29T06:35:20;8.25;;;5.45;;
59273;SDS011;45044;41.572;24.730;2022-07-29T06:38:07;8.30;;;6.30;;
59273;SDS011;45044;41.572;24.730;2022-07-29T06:40:53;7.60;;;5.63;;
59273;SDS011;45044;41.572;24.730;2022-07-29T06:43:27;9.52;;;6.13;;
59273;SDS011;45044;41.572;24.730;2022-07-29T06:45:55;8.60;;;6.00;;
59273;SDS011;45044;41.572;24.730;2022-07-29T06:48:22;6.32;;;3.90;;
59273;SDS011;45044;41.572;24.730;2022-07-29T06:50:49;5.60;;;3.75;;
59273;SDS011;45044;41.572;24.730;2022-07-29T06:53:15;5.00;;;3.83;;
59273;SDS011;45044;41.572;24.730;2022-07-29T06:55:42;5.25;;;3.53;;
59273;SDS011;45044;41.572;24.730;2022-07-29T06:58:11;5.40;;;3.35;;
59273;SDS011;45044;41.572;24.730;2022-07-29T07:00:40;7.35;;;3.20;;
59273;SDS011;45044;41.572;24.730;2022-07-29T07:03:07;5.40;;;2.80;;
59273;SDS011;45044;41.572;24.730;2022-07-29T07:05:34;3.55;;;2.60;;
59273;SDS011;45044;41.572;24.730;2022-07-29T07:08:02;3.10;;;2.28;;
59273;SDS011;45044;41.572;24.730;2022-07-29T07:10:29;3.95;;;2.80;;
59273;SDS011;45044;41.572;24.730;2022-07-29T07:12:56;2.30;;;2.00;;
59273;SDS011;45044;41.572;24.730;2022-07-29T07:15:23;3.55;;;2.35;;
59273;SDS011;45044;41.572;24.730;2022-07-29T07:18:05;3.05;;;2.30;;
59273;SDS011;45044;41.572;24.730;2022-07-29T07:20:33;3.03;;;2.15;;
59273;SDS011;45044;41.572;24.730;2022-07-29T07:23:02;3.42;;;2.20;;
59273;SDS011;45044;41.572;24.730;2022-07-29T07:25:31;3.38;;;2.47;;
59273;SDS011;45044;41.572;24.730;2022-07-29T07:27:59;2.72;;;1.90;;
59273;SDS011;45044;41.572;24.730;2022-07-29T07:30:26;2.63;;;2.20;;
59273;SDS011;45044;41.572;24.730;2022-07-29T07:32:55;3.53;;;2.17;;
59273;SDS011;45044;41.572;24.730;2022-07-29T07:35:22;2.35;;;1.98;;
59273;SDS011;45044;41.572;24.730;2022-07-29T07:37:48;4.00;;;2.70;;
59273;SDS011;45044;41.572;24.730;2022-07-29T07:40:15;3.30;;;2.42;;
59273;SDS011;45044;41.572;24.730;2022-07-29T07:42:44;3.25;;;2.25;;
59273;SDS011;45044;41.572;24.730;2022-07-29T07:45:11;5.50;;;2.75;;
59273;SDS011;45044;41.572;24.730;2022-07-29T07:47:42;4.10;;;2.50;;
59273;SDS011;45044;41.572;24.730;2022-07-29T07:50:10;3.05;;;2.60;;
59273;SDS011;45044;41.572;24.730;2022-07-29T07:52:51;3.00;;;2.40;;
59273;SDS011;45044;41.572;24.730;2022-07-29T07:55:21;2.90;;;2.25;;
59273;SDS011;45044;41.572;24.730;2022-07-29T07:57:47;3.58;;;2.67;;
59273;SDS011;45044;41.572;24.730;2022-07-29T08:00:14;5.03;;;2.70;;
59273;SDS011;45044;41.572;24.730;2022-07-29T08:02:42;2.88;;;2.45;;
59273;SDS011;45044;41.572;24.730;2022-07-29T08:05:11;3.63;;;2.50;;
59273;SDS011;45044;41.572;24.730;2022-07-29T08:07:45;3.22;;;2.25;;
59273;SDS011;45044;41.572;24.730;2022-07-29T08:10:14;3.58;;;2.72;;
59273;SDS011;45044;41.572;24.730;2022-07-29T08:13:06;3.67;;;2.60;;
59273;SDS011;45044;41.572;24.730;2022-07-29T08:15:34;3.50;;;2.17;;
59273;SDS011;45044;41.572;24.730;2022-07-29T08:18:01;3.95;;;2.58;;
59273;SDS011;45044;41.572;24.730;2022-07-29T08:20:34;3.95;;;2.70;;
59273;SDS011;45044;41.572;24.730;2022-07-29T08:23:02;3.45;;;2.40;;
59273;SDS011;45044;41.572;24.730;2022-07-29T08:25:30;2.90;;;2.60;;
59273;SDS011;45044;41.572;24.730;2022-07-29T08:27:59;3.00;;;2.53;;
59273;SDS011;45044;41.572;24.730;2022-07-29T08:30:27;3.70;;;2.83;;
59273;SDS011;45044;41.572;24.730;2022-07-29T08:32:55;4.05;;;2.70;;
59273;SDS011;45044;41.572;24.730;2022-07-29T08:35:23;4.13;;;2.83;;
59273;SDS011;45044;41.572;24.730;2022-07-29T08:38:00;4.40;;;2.90;;
59273;SDS011;45044;41.572;24.730;2022-07-29T08:40:27;3.30;;;2.92;;
59273;SDS011;45044;41.572;24.730;2022-07-29T08:43:07;3.40;;;3.08;;
59273;SDS011;45044;41.572;24.730;2022-07-29T08:45:52;3.47;;;2.50;;
59273;SDS011;45044;41.572;24.730;2022-07-29T08:48:20;3.83;;;2.75;;
59273;SDS011;45044;41.572;24.730;2022-07-29T08:50:52;4.82;;;2.75;;
59273;SDS011;45044;41.572;24.730;2022-07-29T08:53:21;3.88;;;3.03;;
59273;SDS011;45044;41.572;24.730;2022-07-29T08:55:52;3.85;;;2.55;;
59273;SDS011;45044;41.572;24.730;2022-07-29T08:58:21;3.85;;;2.40;;
59273;SDS011;45044;41.572;24.730;2022-07-29T09:00:52;4.03;;;2.30;;
59273;SDS011;45044;41.572;24.730;2022-07-29T09:03:23;3.55;;;2.40;;
59273;SDS011;45044;41.572;24.730;2022-07-29T09:05:51;6.75;;;3.00;;
59273;SDS011;45044;41.572;24.730;2022-07-29T09:08:21;3.42;;;2.80;;
59273;SDS011;45044;41.572;24.730;2022-07-29T09:10:51;5.85;;;2.45;;
59273;SDS011;45044;41.572;24.730;2022-07-29T09:13:19;3.00;;;2.70;;
59273;SDS011;45044;41.572;24.730;2022-07-29T09:15:46;2.97;;;2.55;;
59273;SDS011;45044;41.572;24.730;2022-07-29T09:18:30;3.17;;;2.45;;
59273;SDS011;45044;41.572;24.730;2022-07-29T09:20:59;3.30;;;2.65;;
59273;SDS011;45044;41.572;24.730;2022-07-29T09:26:36;4.72;;;2.55;;
59273;SDS011;45044;41.572;24.730;2022-07-29T09:29:08;3.15;;;2.20;;
59273;SDS011;45044;41.572;24.730;2022-07-29T09:31:37;3.92;;;2.50;;
59273;SDS011;45044;41.572;24.730;2022-07-29T09:34:06;3.50;;;2.17;;
59273;SDS011;45044;41.572;24.730;2022-07-29T09:36:54;3.17;;;2.75;;
59273;SDS011;45044;41.572;24.730;2022-07-29T09:41:58;3.78;;;2.38;;
59273;SDS011;45044;41.572;24.730;2022-07-29T09:47:08;2.97;;;2.28;;
59273;SDS011;45044;41.572;24.730;2022-07-29T09:49:35;2.90;;;2.17;;
59273;SDS011;45044;41.572;24.730;2022-07-29T09:52:16;3.40;;;2.42;;
59273;SDS011;45044;41.572;24.730;2022-07-29T09:54:43;3.03;;;2.40;;
59273;SDS011;45044;41.572;24.730;2022-07-29T09:57:21;2.80;;;2.30;;
59273;SDS011;45044;41.572;24.730;2022-07-29T10:00:00;3.17;;;2.30;;
59273;SDS011;45044;41.572;24.730;2022-07-29T10:02:33;2.92;;;2.17;;
59273;SDS011;45044;41.572;24.730;2022-07-29T10:05:05;2.85;;;2.15;;
59273;SDS011;45044;41.572;24.730;2022-07-29T10:07:43;2.30;;;2.10;;
59273;SDS011;45044;41.572;24.730;2022-07-29T10:12:53;3.78;;;2.40;;
59273;SDS011;45044;41.572;24.730;2022-07-29T10:15:33;3.60;;;2.35;;
59273;SDS011;45044;41.572;24.730;2022-07-29T10:18:10;3.85;;;2.40;;
59273;SDS011;45044;41.572;24.730;2022-07-29T10:20:38;3.90;;;1.92;;
59273;SDS011;45044;41.572;24.730;2022-07-29T10:23:05;2.70;;;2.33;;
59273;SDS011;45044;41.572;24.730;2022-07-29T10:25:32;3.30;;;2.60;;
59273;SDS011;45044;41.572;24.730;2022-07-29T10:28:01;2.83;;;2.33;;
59273;SDS011;45044;41.572;24.730;2022-07-29T10:30:32;3.70;;;2.45;;
59273;SDS011;45044;41.572;24.730;2022-07-29T10:44:13;3.42;;;2.17;;
59273;SDS011;45044;41.572;24.730;2022-07-29T10:46:51;4.00;;;2.67;;
59273;SDS011;45044;41.572;24.730;2022-07-29T10:49:20;3.28;;;2.55;;
59273;SDS011;45044;41.572;24.730;2022-07-29T10:52:03;2.58;;;2.38;;
59273;SDS011;45044;41.572;24.730;2022-07-29T10:57:28;3.70;;;2.40;;
59273;SDS011;45044;41.572;24.730;2022-07-29T11:00:25;3.33;;;2.60;;
59273;SDS011;45044;41.572;24.730;2022-07-29T11:02:56;3.40;;;2.63;;
59273;SDS011;45044;41.572;24.730;2022-07-29T11:13:55;4.97;;;2.92;;
59273;SDS011;45044;41.572;24.730;2022-07-29T11:16:22;4.85;;;2.67;;
59273;SDS011;45044;41.572;24.730;2022-07-29T11:21:40;3.08;;;2.22;;
59273;SDS011;45044;41.572;24.730;2022-07-29T11:27:08;2.85;;;2.30;;
59273;SDS011;45044;41.572;24.730;2022-07-29T11:29:58;4.57;;;2.63;;
59273;SDS011;45044;41.572;24.730;2022-07-29T11:32:41;4.40;;;2.72;;
59273;SDS011;45044;41.572;24.730;2022-07-29T11:35:15;3.75;;;2.55;;
59273;SDS011;45044;41.572;24.730;2022-07-29T11:41:34;3.25;;;2.33;;
59273;SDS011;45044;41.572;24.730;2022-07-29T11:43:55;3.65;;;2.65;;
59273;SDS011;45044;41.572;24.730;2022-07-29T11:49:26;4.97;;;2.80;;
59273;SDS011;45044;41.572;24.730;2022-07-29T11:51:58;3.88;;;3.00;;
59273;SDS011;45044;41.572;24.730;2022-07-29T11:54:36;4.90;;;2.80;;
59273;SDS011;45044;41.572;24.730;2022-07-29T11:57:23;3.38;;;2.70;;
59273;SDS011;45044;41.572;24.730;2022-07-29T12:00:04;3.85;;;2.88;;
59273;SDS011;45044;41.572;24.730;2022-07-29T12:02:40;4.13;;;2.95;;
59273;SDS011;45044;41.572;24.730;2022-07-29T12:05:14;3.60;;;2.45;;
59273;SDS011;45044;41.572;24.730;2022-07-29T12:08:10;4.53;;;3.00;;
59273;SDS011;45044;41.572;24.730;2022-07-29T12:10:40;2.70;;;2.50;;
59273;SDS011;45044;41.572;24.730;2022-07-29T12:13:09;3.40;;;2.85;;
59273;SDS011;45044;41.572;24.730;2022-07-29T12:15:37;4.63;;;3.00;;
59273;SDS011;45044;41.572;24.730;2022-07-29T12:18:16;3.58;;;2.85;;
59273;SDS011;45044;41.572;24.730;2022-07-29T12:20:56;4.45;;;2.50;;
59273;SDS011;45044;41.572;24.730;2022-07-29T12:23:32;3.65;;;2.58;;
59273;SDS011;45044;41.572;24.730;2022-07-29T12:26:00;5.53;;;2.80;;
59273;SDS011;45044;41.572;24.730;2022-07-29T12:28:39;3.00;;;2.20;;
59273;SDS011;45044;41.572;24.730;2022-07-29T12:31:12;5.60;;;2.90;;
59273;SDS011;45044;41.572;24.730;2022-07-29T12:34:00;4.80;;;2.70;;
59273;SDS011;45044;41.572;24.730;2022-07-29T12:36:31;4.72;;;3.05;;
59273;SDS011;45044;41.572;24.730;2022-07-29T12:39:02;4.40;;;3.22;;
59273;SDS011;45044;41.572;24.730;2022-07-29T12:41:32;3.80;;;2.80;;
59273;SDS011;45044;41.572;24.730;2022-07-29T12:43:59;4.85;;;3.05;;
59273;SDS011;45044;41.572;24.730;2022-07-29T12:46:25;5.60;;;3.25;;
59273;SDS011;45044;41.572;24.730;2022-07-29T12:48:53;3.63;;;2.75;;
59273;SDS011;45044;41.572;24.730;2022-07-29T12:51:28;4.10;;;2.80;;
59273;SDS011;45044;41.572;24.730;2022-07-29T12:54:03;4.68;;;2.90;;
59273;SDS011;45044;41.572;24.730;2022-07-29T12:56:31;3.67;;;2.58;;
59273;SDS011;45044;41.572;24.730;2022-07-29T12:59:16;6.22;;;3.35;;
59273;SDS011;45044;41.572;24.730;2022-07-29T13:01:45;3.13;;;2.70;;
59273;SDS011;45044;41.572;24.730;2022-07-29T13:04:25;4.47;;;3.10;;
59273;SDS011;45044;41.572;24.730;2022-07-29T13:06:59;3.80;;;3.25;;
59273;SDS011;45044;41.572;24.730;2022-07-29T13:09:40;3.75;;;3.08;;
59273;SDS011;45044;41.572;24.730;2022-07-29T13:15:37;3.70;;;2.83;;
59273;SDS011;45044;41.572;24.730;2022-07-29T13:20:54;5.22;;;3.53;;
59273;SDS011;45044;41.572;24.730;2022-07-29T13:23:21;4.07;;;3.25;;
59273;SDS011;45044;41.572;24.730;2022-07-29T13:25:48;4.80;;;3.20;;
59273;SDS011;45044;41.572;24.730;2022-07-29T13:28:17;4.70;;;3.30;;
59273;SDS011;45044;41.572;24.730;2022-07-29T13:30:44;4.25;;;2.80;;
59273;SDS011;45044;41.572;24.730;2022-07-29T13:33:11;4.32;;;3.30;;
59273;SDS011;45044;41.572;24.730;2022-07-29T13:35:39;6.05;;;3.33;;
59273;SDS011;45044;41.572;24.730;2022-07-29T13:38:05;4.03;;;3.10;;
59273;SDS011;45044;41.572;24.730;2022-07-29T13:40:35;4.75;;;3.10;;
59273;SDS011;45044;41.572;24.730;2022-07-29T13:43:03;4.95;;;3.20;;
59273;SDS011;45044;41.572;24.730;2022-07-29T13:45:30;4.55;;;3.13;;
59273;SDS011;45044;41.572;24.730;2022-07-29T13:47:56;4.65;;;3.30;;
59273;SDS011;45044;41.572;24.730;2022-07-29T13:50:23;4.78;;;3.10;;
59273;SDS011;45044;41.572;24.730;2022-07-29T13:52:52;4.45;;;3.40;;
59273;SDS011;45044;41.572;24.730;2022-07-29T13:55:19;6.55;;;3.70;;
59273;SDS011;45044;41.572;24.730;2022-07-29T13:57:46;6.95;;;4.25;;
59273;SDS011;45044;41.572;24.730;2022-07-29T14:00:13;5.68;;;3.45;;
59273;SDS011;45044;41.572;24.730;2022-07-29T14:02:47;3.90;;;3.30;;
59273;SDS011;45044;41.572;24.730;2022-07-29T14:05:14;7.55;;;3.80;;
59273;SDS011;45044;41.572;24.730;2022-07-29T14:07:40;6.22;;;3.42;;
59273;SDS011;45044;41.572;24.730;2022-07-29T14:10:07;5.57;;;4.57;;
59273;SDS011;45044;41.572;24.730;2022-07-29T14:12:34;5.57;;;3.70;;
59273;SDS011;45044;41.572;24.730;2022-07-29T14:15:01;5.75;;;3.65;;
59273;SDS011;45044;41.572;24.730;2022-07-29T14:17:28;6.40;;;3.70;;
59273;SDS011;45044;41.572;24.730;2022-07-29T14:19:58;5.53;;;3.58;;
59273;SDS011;45044;41.572;24.730;2022-07-29T14:22:24;4.95;;;3.58;;
59273;SDS011;45044;41.572;24.730;2022-07-29T14:24:51;4.05;;;3.40;;
59273;SDS011;45044;41.572;24.730;2022-07-29T14:27:18;5.13;;;3.88;;
59273;SDS011;45044;41.572;24.730;2022-07-29T14:30:03;4.95;;;4.05;;
59273;SDS011;45044;41.572;24.730;2022-07-29T14:32:31;6.57;;;4.10;;
59273;SDS011;45044;41.572;24.730;2022-07-29T14:34:57;9.20;;;8.20;;
59273;SDS011;45044;41.572;24.730;2022-07-29T14:37:24;6.55;;;4.35;;
59273;SDS011;45044;41.572;24.730;2022-07-29T14:39:50;5.15;;;4.35;;
59273;SDS011;45044;41.572;24.730;2022-07-29T14:42:17;6.38;;;4.03;;
59273;SDS011;45044;41.572;24.730;2022-07-29T14:44:44;5.68;;;3.92;;
59273;SDS011;45044;41.572;24.730;2022-07-29T14:47:12;4.90;;;4.10;;
59273;SDS011;45044;41.572;24.730;2022-07-29T14:49:38;5.28;;;3.88;;
59273;SDS011;45044;41.572;24.730;2022-07-29T14:52:05;7.63;;;4.25;;
59273;SDS011;45044;41.572;24.730;2022-07-29T14:54:32;5.35;;;3.95;;
59273;SDS011;45044;41.572;24.730;2022-07-29T14:56:58;5.35;;;3.92;;
59273;SDS011;45044;41.572;24.730;2022-07-29T14:59:25;5.97;;;4.40;;
59273;SDS011;45044;41.572;24.730;2022-07-29T15:01:53;7.13;;;4.72;;
59273;SDS011;45044;41.572;24.730;2022-07-29T15:04:22;4.93;;;4.07;;
59273;SDS011;45044;41.572;24.730;2022-07-29T15:06:50;6.55;;;4.20;;
59273;SDS011;45044;41.572;24.730;2022-07-29T15:09:16;5.15;;;3.95;;
59273;SDS011;45044;41.572;24.730;2022-07-29T15:11:44;5.85;;;4.75;;
59273;SDS011;45044;41.572;24.730;2022-07-29T15:14:10;7.13;;;4.78;;
59273;SDS011;45044;41.572;24.730;2022-07-29T15:16:38;5.63;;;4.63;;
59273;SDS011;45044;41.572;24.730;2022-07-29T15:19:12;6.38;;;4.18;;
59273;SDS011;45044;41.572;24.730;2022-07-29T15:21:39;6.10;;;4.10;;
59273;SDS011;45044;41.572;24.730;2022-07-29T15:24:24;7.20;;;4.68;;
59273;SDS011;45044;41.572;24.730;2022-07-29T15:26:52;6.35;;;4.72;;
59273;SDS011;45044;41.572;24.730;2022-07-29T15:29:18;5.55;;;4.10;;
59273;SDS011;45044;41.572;24.730;2022-07-29T15:31:45;5.63;;;4.55;;
59273;SDS011;45044;41.572;24.730;2022-07-29T15:34:12;5.18;;;4.05;;
59273;SDS011;45044;41.572;24.730;2022-07-29T15:36:39;6.30;;;4.50;;
59273;SDS011;45044;41.572;24.730;2022-07-29T15:39:19;6.20;;;4.35;;
59273;SDS011;45044;41.572;24.730;2022-07-29T15:41:47;6.10;;;4.43;;
59273;SDS011;45044;41.572;24.730;2022-07-29T15:44:16;6.72;;;4.93;;
59273;SDS011;45044;41.572;24.730;2022-07-29T15:46:43;5.60;;;4.18;;
59273;SDS011;45044;41.572;24.730;2022-07-29T15:49:36;6.55;;;4.50;;
59273;SDS011;45044;41.572;24.730;2022-07-29T15:52:15;7.03;;;4.35;;
59273;SDS011;45044;41.572;24.730;2022-07-29T15:54:52;5.38;;;4.25;;
59273;SDS011;45044;41.572;24.730;2022-07-29T15:59:53;4.97;;;4.13;;
59273;SDS011;45044;41.572;24.730;2022-07-29T16:02:20;5.70;;;4.13;;
59273;SDS011;45044;41.572;24.730;2022-07-29T16:04:46;5.80;;;4.57;;
59273;SDS011;45044;41.572;24.730;2022-07-29T16:07:13;5.68;;;4.22;;
59273;SDS011;45044;41.572;24.730;2022-07-29T16:09:41;5.30;;;4.18;;
59273;SDS011;45044;41.572;24.730;2022-07-29T16:12:08;5.50;;;4.10;;